Aérodrome :
LOGIN :

S'inscrire | Disclaimer

   EN    FR    IT 

 










Légende :    VFR   VFR Marginal   IFR   IFR Intensif   IFR Très Intensif
Visi : 
Plafond : 
>= 8 km
>= 3000ft
5 à 8 km
1000 à 3000 ft
1500m à 5 km
500 à 1000 ft
800 à 1500m
200 à 500 ft
< 800m
< 200 ft
Symboles :   Orages  Brouillard  Fortes neiges  Fortes précipitations  Vent > 20 kt
SIGMETs :   Divers  Orages  Givrage  Turbulence  Onde Orograph.  Cendres Volcan.






- Altitude de l'aérodrome : 3 ft
- Code IATA : DHR


EHKD - Den Helder De Kooy

DERNIER METAR :
  • 170825Z AUTO 16007KT 9999 NCD 04/03 Q1012 BLU 16008KT CAVOK

METARs EXPIRÉS :
  • 170755Z AUTO 16007KT 9999 NCD 03/02 Q1011 BLU 19008KT 9999 SCT045
  • 170725Z AUTO 18005KT 9999 NCD 03/02 Q1011 BLU 19008KT 9999 SCT045
  • 170655Z AUTO 19005KT 9999 NCD 02/01 Q1011 BLU 19008KT 9999 SCT045
  • 170625Z AUTO 19007KT 9999 NCD 03/02 Q1010 BLU 19008KT 9999 SCT045
  • 170555Z AUTO 19008KT 9999 NCD 04/02 Q1010 BLU 19008KT 9999 SCT045
  • 170525Z AUTO 19008KT 9999 OVC047 06/03 Q1010 BLU 19008KT 9999 BKN045

TAF TAF EHKD
Valide du 17 à 06h jusqu'au 17 à 18h UTC


170539Z 1706/1718 17007KT 9999 FEW045
BECMG 1712/1714 11004KT
BECMG 1714/1716 04005KT



MET'MAP, la Météo Aéronautique d'un coup d'oeil ! - Copyright ORBIFLY Décembre 2007 - Disclaimer

ORBIFLY MET'MAP TEAM :

Programmation & Développement : Alexandra Zaïnal
Conception & Développement : Baudouin d'Aumeries
Co-Programmation & Développement : Marc-Olivier Méhu
Soutien technique & logistique : Manuel Goepfert

Contact : metmap@orbifly.com




SOURCES & CREDITS :

   NOAA